Time;durP1;ratioP1;P1;durP2;ratioP2;P2;SDS_P1;SDS_P2;PMS_P1;PMS_P2;Temp;Humidity;BMP_temperature;BMP_pressure;BME280_temperature;BME280_humidity;BME280_pressure;Samples;Min_cycle;Max_cycle;Signal;HPM_P1;HPM_P2
2023/03/10 00:01:38;;;;;;;1.07;0.90;;;;;;;;;;5070444;28;20456;-79
2023/03/10 00:04:05;;;;;;;1.30;1.00;;;;;;;;;;5069893;28;20765;-78
2023/03/10 00:06:34;;;;;;;1.00;0.70;;;;;;;;;;5069970;28;20446;-79
2023/03/10 00:09:02;;;;;;;0.60;0.50;;;;;;;;;;5070388;28;20480;-79
2023/03/10 00:11:29;;;;;;;2.60;1.23;;;;;;;;;;5070545;28;20461;-79
2023/03/10 00:13:57;;;;;;;2.93;0.90;;;;;;;;;;5072509;28;20441;-81
2023/03/10 00:16:25;;;;;;;1.40;1.00;;;;;;;;;;5074385;28;20536;-81
2023/03/10 00:18:52;;;;;;;2.47;0.80;;;;;;;;;;5074308;28;20437;-81
2023/03/10 00:21:20;;;;;;;2.50;0.70;;;;;;;;;;5074355;28;20947;-80
2023/03/10 00:23:48;;;;;;;1.73;0.70;;;;;;;;;;5074194;28;20441;-71
2023/03/10 00:26:17;;;;;;;1.13;0.80;;;;;;;;;;5074856;28;20794;-78
2023/03/10 00:28:44;;;;;;;2.07;1.30;;;;;;;;;;5074898;28;20477;-80
2023/03/10 00:31:12;;;;;;;1.27;0.80;;;;;;;;;;5073571;28;20464;-79
2023/03/10 00:33:39;;;;;;;1.60;1.00;;;;;;;;;;5074264;28;20442;-79
2023/03/10 00:36:08;;;;;;;2.77;1.00;;;;;;;;;;5073396;28;20442;-79
2023/03/10 00:38:35;;;;;;;0.97;0.87;;;;;;;;;;5074183;28;20440;-80
2023/03/10 00:41:03;;;;;;;1.40;1.00;;;;;;;;;;5073248;28;20445;-80
2023/03/10 00:43:32;;;;;;;1.03;0.93;;;;;;;;;;5073647;28;20448;-79
2023/03/10 00:45:59;;;;;;;4.03;0.77;;;;;;;;;;5073193;28;20465;-79
2023/03/10 00:48:26;;;;;;;2.57;1.27;;;;;;;;;;5073622;28;20488;-80
2023/03/10 00:50:54;;;;;;;3.90;0.90;;;;;;;;;;5073166;28;20453;-80
2023/03/10 00:53:21;;;;;;;2.30;1.27;;;;;;;;;;5073621;28;20444;-79
2023/03/10 00:55:57;;;;;;;1.07;0.70;;;;;;;;;;5073249;28;20449;-74
2023/03/10 00:58:25;;;;;;;3.33;0.90;;;;;;;;;;5073963;28;20445;-79
2023/03/10 01:00:54;;;;;;;1.70;1.00;;;;;;;;;;5073097;28;20441;-79
2023/03/10 01:03:21;;;;;;;2.90;1.00;;;;;;;;;;5073229;28;20438;-77
2023/03/10 01:05:48;;;;;;;1.10;1.00;;;;;;;;;;5073134;28;20444;-75
2023/03/10 01:08:15;;;;;;;2.97;1.10;;;;;;;;;;5073632;28;20491;-79
2023/03/10 01:10:43;;;;;;;0.97;0.70;;;;;;;;;;5073452;28;20943;-79
2023/03/10 01:13:11;;;;;;;1.90;1.00;;;;;;;;;;5072556;28;20453;-79
2023/03/10 01:15:38;;;;;;;1.37;1.00;;;;;;;;;;5073610;28;20979;-79
2023/03/10 01:18:07;;;;;;;1.30;1.00;;;;;;;;;;5072154;28;20441;-79
2023/03/10 01:20:34;;;;;;;1.37;0.70;;;;;;;;;;5072630;28;20439;-79
2023/03/10 01:23:01;;;;;;;1.83;1.10;;;;;;;;;;5072050;28;20450;-79
2023/03/10 01:25:29;;;;;;;1.10;0.63;;;;;;;;;;5072771;28;20458;-79
2023/03/10 01:27:56;;;;;;;1.10;0.60;;;;;;;;;;5072184;28;20496;-79
2023/03/10 01:30:23;;;;;;;2.30;0.70;;;;;;;;;;5073135;28;20442;-79
2023/03/10 01:32:50;;;;;;;1.30;0.80;;;;;;;;;;5071792;28;20441;-79
2023/03/10 01:35:19;;;;;;;2.17;1.30;;;;;;;;;;5072975;28;20453;-79
2023/03/10 01:37:46;;;;;;;1.60;0.77;;;;;;;;;;5073086;28;20444;-79
2023/03/10 01:40:15;;;;;;;0.87;0.63;;;;;;;;;;5073187;28;20445;-79
2023/03/10 01:42:42;;;;;;;2.57;1.10;;;;;;;;;;5072189;28;20433;-78
2023/03/10 01:45:30;;;;;;;2.80;1.00;;;;;;;;;;5072018;28;20473;-79
2023/03/10 01:47:57;;;;;;;0.90;0.70;;;;;;;;;;5072181;28;20441;-79
2023/03/10 01:50:26;;;;;;;1.43;0.83;;;;;;;;;;5072510;28;20441;-79
2023/03/10 01:52:57;;;;;;;1.83;0.80;;;;;;;;;;5071867;28;20438;-79
2023/03/10 01:55:25;;;;;;;1.03;0.90;;;;;;;;;;5072554;28;20434;-79
2023/03/10 01:57:54;;;;;;;1.50;0.80;;;;;;;;;;5072131;28;20448;-79
2023/03/10 02:00:21;;;;;;;1.17;0.80;;;;;;;;;;5072337;28;20444;-79
2023/03/10 02:02:52;;;;;;;2.70;0.67;;;;;;;;;;5071244;28;20526;-76
2023/03/10 02:05:20;;;;;;;1.10;0.70;;;;;;;;;;5072268;28;20437;-79
2023/03/10 02:07:49;;;;;;;1.43;1.00;;;;;;;;;;5071780;28;20925;-79
2023/03/10 02:10:17;;;;;;;1.43;0.90;;;;;;;;;;5071102;28;20442;-79
2023/03/10 02:12:44;;;;;;;0.90;0.60;;;;;;;;;;5071999;28;20468;-79
2023/03/10 02:15:12;;;;;;;1.10;0.80;;;;;;;;;;5071087;28;20847;-79
2023/03/10 02:17:39;;;;;;;0.70;0.60;;;;;;;;;;5071983;28;20449;-79
2023/03/10 02:20:12;;;;;;;2.00;1.07;;;;;;;;;;5071190;28;20879;-79
2023/03/10 02:22:40;;;;;;;1.07;0.60;;;;;;;;;;5071542;28;20931;-78
2023/03/10 02:25:13;;;;;;;0.83;0.67;;;;;;;;;;5071393;28;20449;-79
2023/03/10 02:27:42;;;;;;;2.50;0.53;;;;;;;;;;5071614;28;20441;-79
2023/03/10 02:30:11;;;;;;;1.37;0.70;;;;;;;;;;5071069;28;20489;-78
2023/03/10 02:32:40;;;;;;;3.10;0.77;;;;;;;;;;5071329;28;20453;-79
2023/03/10 02:35:07;;;;;;;1.50;0.70;;;;;;;;;;5071116;28;20917;-79
2023/03/10 02:37:35;;;;;;;0.80;0.80;;;;;;;;;;5071333;28;20794;-79
2023/03/10 02:40:04;;;;;;;0.70;0.57;;;;;;;;;;5071176;28;20444;-79
2023/03/10 02:42:33;;;;;;;0.97;0.60;;;;;;;;;;5071012;28;20532;-79
2023/03/10 02:45:02;;;;;;;1.23;0.60;;;;;;;;;;5070980;28;20472;-79
2023/03/10 02:47:29;;;;;;;1.53;0.60;;;;;;;;;;5071313;28;20445;-79
2023/03/10 02:49:56;;;;;;;2.60;0.60;;;;;;;;;;5070536;28;20473;-79
2023/03/10 02:52:27;;;;;;;2.60;0.60;;;;;;;;;;5070754;28;20448;-78
2023/03/10 02:54:54;;;;;;;0.70;0.50;;;;;;;;;;5063830;28;20448;-79
2023/03/10 02:57:21;;;;;;;0.90;0.63;;;;;;;;;;5071244;28;20449;-78
2023/03/10 02:59:48;;;;;;;2.87;0.83;;;;;;;;;;5070678;28;20484;-75
2023/03/10 03:02:17;;;;;;;1.07;0.50;;;;;;;;;;5070360;28;20441;-76
2023/03/10 03:04:44;;;;;;;0.80;0.60;;;;;;;;;;5070778;28;20446;-79
2023/03/10 03:07:11;;;;;;;1.00;0.80;;;;;;;;;;5070670;28;20800;-79
2023/03/10 03:09:38;;;;;;;0.97;0.60;;;;;;;;;;5071005;28;20477;-78
2023/03/10 03:12:05;;;;;;;1.27;0.50;;;;;;;;;;5069585;28;21231;-79
2023/03/10 03:14:32;;;;;;;0.80;0.70;;;;;;;;;;5071067;28;20801;-77
2023/03/10 03:16:59;;;;;;;1.20;0.60;;;;;;;;;;5070181;28;20457;-79
2023/03/10 03:19:28;;;;;;;1.57;0.70;;;;;;;;;;5070828;28;20441;-79
2023/03/10 03:21:55;;;;;;;0.80;0.60;;;;;;;;;;5070291;28;20434;-79
2023/03/10 03:24:22;;;;;;;0.60;0.43;;;;;;;;;;5071052;28;20436;-79
2023/03/10 03:26:49;;;;;;;1.23;0.60;;;;;;;;;;5070329;28;20444;-78
2023/03/10 03:29:16;;;;;;;0.90;0.60;;;;;;;;;;5070879;28;20477;-79
2023/03/10 03:31:43;;;;;;;0.90;0.53;;;;;;;;;;5071146;28;20453;-76
2023/03/10 03:34:10;;;;;;;1.90;0.60;;;;;;;;;;5070212;28;20438;-79
2023/03/10 03:36:39;;;;;;;0.93;0.60;;;;;;;;;;5071019;28;20446;-79
2023/03/10 03:39:06;;;;;;;0.97;0.60;;;;;;;;;;5070387;28;20445;-79
2023/03/10 03:41:33;;;;;;;1.33;1.23;;;;;;;;;;5070768;28;20448;-79
2023/03/10 03:44:00;;;;;;;0.80;0.57;;;;;;;;;;5073499;28;20519;-79
2023/03/10 03:46:27;;;;;;;0.87;0.60;;;;;;;;;;5071096;28;20465;-78
2023/03/10 03:48:54;;;;;;;0.70;0.63;;;;;;;;;;5074428;28;20823;-78
2023/03/10 03:51:21;;;;;;;1.13;0.80;;;;;;;;;;5075201;28;20457;-79
2023/03/10 03:53:50;;;;;;;0.60;0.40;;;;;;;;;;5073930;28;20448;-76
2023/03/10 03:56:17;;;;;;;0.60;0.40;;;;;;;;;;5075204;28;20449;-79
2023/03/10 03:58:44;;;;;;;1.27;0.60;;;;;;;;;;5074996;28;20445;-79
2023/03/10 04:01:11;;;;;;;0.70;0.53;;;;;;;;;;5073972;28;20438;-79
2023/03/10 04:03:38;;;;;;;0.70;0.50;;;;;;;;;;5074526;28;20441;-79
2023/03/10 04:06:07;;;;;;;0.80;0.50;;;;;;;;;;5074254;28;20441;-79
2023/03/10 04:08:34;;;;;;;0.80;0.60;;;;;;;;;;5074676;28;20441;-79
2023/03/10 04:11:02;;;;;;;1.00;0.53;;;;;;;;;;5074252;28;20433;-74
2023/03/10 04:13:29;;;;;;;0.60;0.47;;;;;;;;;;5073975;28;20429;-78
2023/03/10 04:15:57;;;;;;;1.10;0.70;;;;;;;;;;5074093;28;20447;-77
2023/03/10 04:18:24;;;;;;;1.00;0.60;;;;;;;;;;5074596;28;20437;-78
2023/03/10 04:20:51;;;;;;;0.80;0.63;;;;;;;;;;5073729;28;20453;-78
2023/03/10 04:23:18;;;;;;;0.93;0.60;;;;;;;;;;5073990;28;20448;-75
2023/03/10 04:25:45;;;;;;;0.60;0.40;;;;;;;;;;5073347;28;20448;-78
2023/03/10 04:28:14;;;;;;;1.17;0.70;;;;;;;;;;5072621;28;20437;-77
2023/03/10 04:30:42;;;;;;;0.60;0.40;;;;;;;;;;5074238;28;20591;-78
2023/03/10 04:33:10;;;;;;;1.00;0.90;;;;;;;;;;5073272;28;20783;-78
2023/03/10 04:35:39;;;;;;;1.43;0.87;;;;;;;;;;5074202;28;20464;-78
2023/03/10 04:38:06;;;;;;;0.80;0.50;;;;;;;;;;5073643;28;20444;-79
2023/03/10 04:40:33;;;;;;;0.63;0.43;;;;;;;;;;5074192;28;20441;-86
2023/03/10 04:43:01;;;;;;;0.80;0.60;;;;;;;;;;5073164;28;20437;-77
2023/03/10 04:45:29;;;;;;;1.10;0.70;;;;;;;;;;5073415;28;20461;-79
2023/03/10 04:47:56;;;;;;;1.47;0.50;;;;;;;;;;5073285;28;20429;-78
2023/03/10 04:50:23;;;;;;;2.00;0.70;;;;;;;;;;5073880;28;21044;-78
2023/03/10 04:52:50;;;;;;;1.07;0.70;;;;;;;;;;5073161;28;20461;-78
2023/03/10 04:55:18;;;;;;;1.10;0.60;;;;;;;;;;5073961;28;20437;-76
2023/03/10 04:57:45;;;;;;;1.20;0.60;;;;;;;;;;5074122;28;20436;-78
2023/03/10 05:00:12;;;;;;;1.77;0.50;;;;;;;;;;5073083;28;20445;-77
2023/03/10 05:02:41;;;;;;;1.23;0.70;;;;;;;;;;5073890;28;20473;-82
2023/03/10 05:05:09;;;;;;;1.07;0.77;;;;;;;;;;5073116;28;20441;-79
2023/03/10 05:07:36;;;;;;;0.90;0.60;;;;;;;;;;5073702;28;20441;-79
2023/03/10 05:10:03;;;;;;;1.10;0.70;;;;;;;;;;5072350;28;20469;-81
2023/03/10 05:12:30;;;;;;;1.33;0.70;;;;;;;;;;5072623;28;20441;-80
2023/03/10 05:14:57;;;;;;;3.53;1.10;;;;;;;;;;5072699;28;20905;-78
2023/03/10 05:17:26;;;;;;;0.70;0.60;;;;;;;;;;5073195;28;20441;-79
2023/03/10 05:19:54;;;;;;;0.90;0.63;;;;;;;;;;5072727;28;20440;-79
2023/03/10 05:22:21;;;;;;;1.00;0.63;;;;;;;;;;5072902;28;20959;-80
2023/03/10 05:24:49;;;;;;;2.53;1.03;;;;;;;;;;5072194;28;20438;-78
2023/03/10 05:27:18;;;;;;;0.70;0.60;;;;;;;;;;5073374;28;20472;-79
2023/03/10 05:29:45;;;;;;;0.90;0.77;;;;;;;;;;5073338;28;20472;-80
2023/03/10 05:32:12;;;;;;;0.90;0.70;;;;;;;;;;5071894;28;20917;-78
2023/03/10 05:34:39;;;;;;;1.30;0.80;;;;;;;;;;5073201;28;20438;-76
2023/03/10 05:37:08;;;;;;;0.70;0.50;;;;;;;;;;5072635;28;20449;-75
2023/03/10 05:39:35;;;;;;;1.00;0.60;;;;;;;;;;5073052;28;20449;-75
2023/03/10 05:42:02;;;;;;;1.53;0.60;;;;;;;;;;5072133;28;20460;-75
2023/03/10 05:44:29;;;;;;;1.53;1.20;;;;;;;;;;5059170;28;20464;-78
2023/03/10 05:46:56;;;;;;;0.80;0.60;;;;;;;;;;5072444;28;20456;-81
2023/03/10 05:49:23;;;;;;;1.03;0.73;;;;;;;;;;5072683;28;20480;-80
2023/03/10 05:51:51;;;;;;;1.10;0.90;;;;;;;;;;5072061;28;20438;-81
2023/03/10 05:54:20;;;;;;;3.07;1.40;;;;;;;;;;5072704;28;20448;-76
2023/03/10 05:56:47;;;;;;;2.13;0.60;;;;;;;;;;5072782;28;20440;-80
2023/03/10 05:59:14;;;;;;;1.40;0.63;;;;;;;;;;5072500;28;20436;-75
2023/03/10 06:01:41;;;;;;;1.20;0.60;;;;;;;;;;5058621;28;20909;-76
2023/03/10 06:04:08;;;;;;;0.90;0.70;;;;;;;;;;5072423;28;20445;-75
2023/03/10 06:06:36;;;;;;;0.90;0.70;;;;;;;;;;5071568;28;20445;-76
2023/03/10 06:09:03;;;;;;;2.10;1.00;;;;;;;;;;5072250;28;20437;-75
2023/03/10 06:11:32;;;;;;;7.33;0.73;;;;;;;;;;5071230;28;20442;-74
2023/03/10 06:13:59;;;;;;;1.37;0.73;;;;;;;;;;5070992;28;20449;-81
2023/03/10 06:16:26;;;;;;;1.23;0.50;;;;;;;;;;5072612;28;20483;-80
2023/03/10 06:18:54;;;;;;;1.00;0.90;;;;;;;;;;5072178;28;20456;-81
2023/03/10 06:21:22;;;;;;;2.07;0.70;;;;;;;;;;5072539;28;20498;-80
2023/03/10 06:23:49;;;;;;;0.80;0.60;;;;;;;;;;5071655;28;20441;-80
2023/03/10 06:26:17;;;;;;;1.73;0.97;;;;;;;;;;5072367;28;20947;-80
2023/03/10 06:28:47;;;;;;;0.70;0.50;;;;;;;;;;5072587;28;20444;-80
2023/03/10 06:31:15;;;;;;;0.90;0.60;;;;;;;;;;5072248;28;20481;-80
2023/03/10 06:33:42;;;;;;;3.77;0.70;;;;;;;;;;5072018;28;20800;-77
2023/03/10 06:36:10;;;;;;;1.00;0.57;;;;;;;;;;5071698;28;20441;-79
2023/03/10 06:38:37;;;;;;;0.60;0.40;;;;;;;;;;5071935;28;20924;-79
2023/03/10 06:41:04;;;;;;;0.70;0.40;;;;;;;;;;5071620;28;20446;-78
2023/03/10 06:43:31;;;;;;;0.60;0.40;;;;;;;;;;5071552;28;20438;-76
2023/03/10 06:46:00;;;;;;;0.70;0.50;;;;;;;;;;5071145;28;20511;-77
2023/03/10 06:48:27;;;;;;;0.60;0.43;;;;;;;;;;5071696;28;20947;-78
2023/03/10 06:50:54;;;;;;;0.60;0.40;;;;;;;;;;5071369;28;20473;-77
2023/03/10 06:53:22;;;;;;;0.60;0.40;;;;;;;;;;5071537;28;20449;-76
2023/03/10 06:55:57;;;;;;;0.80;0.40;;;;;;;;;;5071422;28;20794;-75
2023/03/10 06:58:24;;;;;;;1.10;0.70;;;;;;;;;;5071874;28;20437;-76
2023/03/10 07:00:51;;;;;;;0.60;0.47;;;;;;;;;;5071317;28;20437;-77
2023/03/10 07:03:20;;;;;;;1.80;0.63;;;;;;;;;;5071200;28;20444;-76
2023/03/10 07:05:47;;;;;;;1.00;0.73;;;;;;;;;;5071656;28;20508;-75
2023/03/10 07:08:14;;;;;;;1.23;0.90;;;;;;;;;;5071786;28;20532;-76
2023/03/10 07:10:41;;;;;;;3.30;0.67;;;;;;;;;;5071715;28;20477;-77
2023/03/10 07:13:09;;;;;;;1.00;0.63;;;;;;;;;;5070615;28;20441;-77
2023/03/10 07:15:36;;;;;;;0.70;0.50;;;;;;;;;;5071821;28;20507;-77
2023/03/10 07:18:04;;;;;;;1.43;0.70;;;;;;;;;;5070871;28;20442;-76
2023/03/10 07:20:32;;;;;;;1.40;0.60;;;;;;;;;;5071679;28;20445;-76
2023/03/10 07:22:59;;;;;;;0.97;0.50;;;;;;;;;;5070295;28;20433;-76
2023/03/10 07:25:26;;;;;;;1.63;1.03;;;;;;;;;;5071654;28;20441;-76
2023/03/10 07:27:53;;;;;;;0.93;0.60;;;;;;;;;;5070926;28;20457;-76
2023/03/10 07:30:21;;;;;;;0.70;0.50;;;;;;;;;;5071352;28;20477;-76
2023/03/10 07:32:48;;;;;;;1.30;0.60;;;;;;;;;;5070447;28;20910;-73
2023/03/10 07:35:15;;;;;;;0.80;0.50;;;;;;;;;;5071645;28;20442;-76
2023/03/10 07:37:43;;;;;;;0.80;0.50;;;;;;;;;;5071341;28;20441;-76
2023/03/10 07:40:11;;;;;;;1.77;0.60;;;;;;;;;;5070890;28;20449;-77
2023/03/10 07:42:38;;;;;;;0.90;0.80;;;;;;;;;;5070901;28;20441;-76
2023/03/10 07:45:06;;;;;;;1.10;0.53;;;;;;;;;;5070468;28;20501;-76
2023/03/10 07:47:33;;;;;;;0.80;0.57;;;;;;;;;;5071062;28;20453;-75
2023/03/10 07:50:00;;;;;;;3.13;0.80;;;;;;;;;;5070356;28;20480;-76
2023/03/10 07:52:28;;;;;;;0.80;0.60;;;;;;;;;;5070778;28;20464;-76
2023/03/10 07:54:57;;;;;;;2.50;0.70;;;;;;;;;;5070629;28;20459;-75
2023/03/10 07:57:24;;;;;;;1.63;1.03;;;;;;;;;;5070923;28;20442;-75
2023/03/10 07:59:51;;;;;;;1.60;0.60;;;;;;;;;;5070585;28;20441;-76
2023/03/10 08:02:18;;;;;;;0.90;0.70;;;;;;;;;;5070448;28;20437;-74
2023/03/10 08:04:46;;;;;;;1.90;0.90;;;;;;;;;;5070915;28;20445;-74
2023/03/10 08:07:13;;;;;;;2.10;0.50;;;;;;;;;;5071132;28;20449;-74
2023/03/10 08:09:40;;;;;;;0.80;0.60;;;;;;;;;;5071054;28;20453;-74
2023/03/10 08:12:09;;;;;;;0.80;0.63;;;;;;;;;;5070208;28;20464;-75
2023/03/10 08:14:36;;;;;;;3.33;0.70;;;;;;;;;;5070908;28;20445;-74
2023/03/10 08:17:03;;;;;;;1.00;0.50;;;;;;;;;;5070330;28;20457;-75
2023/03/10 08:19:30;;;;;;;1.43;0.83;;;;;;;;;;5070874;28;20445;-75
2023/03/10 08:21:57;;;;;;;1.17;0.80;;;;;;;;;;5070048;28;20449;-74
2023/03/10 08:24:25;;;;;;;0.90;0.67;;;;;;;;;;5070781;28;20445;-74
2023/03/10 08:26:52;;;;;;;0.70;0.50;;;;;;;;;;5070378;28;20780;-73
2023/03/10 08:29:20;;;;;;;0.70;0.50;;;;;;;;;;5070836;28;20437;-72
2023/03/10 08:31:48;;;;;;;1.37;0.60;;;;;;;;;;5070276;28;20831;-69
2023/03/10 08:34:16;;;;;;;1.40;0.60;;;;;;;;;;5072166;28;20449;-72
2023/03/10 08:36:43;;;;;;;0.77;0.60;;;;;;;;;;5074590;28;20449;-72
2023/03/10 08:39:11;;;;;;;1.00;0.50;;;;;;;;;;5074022;28;20444;-73
2023/03/10 08:41:40;;;;;;;0.90;0.50;;;;;;;;;;5074496;28;20453;-72
2023/03/10 08:44:10;;;;;;;3.13;0.70;;;;;;;;;;5073853;28;20811;-73
2023/03/10 08:46:38;;;;;;;0.90;0.50;;;;;;;;;;5074400;28;21030;-73
2023/03/10 08:49:06;;;;;;;1.67;0.70;;;;;;;;;;5073799;28;20441;-73
2023/03/10 08:51:33;;;;;;;2.00;1.10;;;;;;;;;;5073893;28;20477;-73
2023/03/10 08:54:00;;;;;;;1.20;0.93;;;;;;;;;;5073262;28;20437;-73
2023/03/10 08:56:28;;;;;;;0.70;0.57;;;;;;;;;;5074271;28;20445;-74
2023/03/10 08:58:57;;;;;;;1.33;0.50;;;;;;;;;;5073505;28;20444;-74
2023/03/10 09:01:25;;;;;;;0.90;0.50;;;;;;;;;;5073721;28;20920;-74
2023/03/10 09:03:54;;;;;;;1.37;0.60;;;;;;;;;;5072623;28;20444;-74
2023/03/10 09:06:21;;;;;;;2.20;0.60;;;;;;;;;;5073978;28;20444;-73
2023/03/10 09:08:49;;;;;;;1.03;0.57;;;;;;;;;;5073283;28;20944;-70
2023/03/10 09:11:17;;;;;;;0.73;0.47;;;;;;;;;;5073999;28;20473;-74
2023/03/10 09:13:45;;;;;;;0.90;0.50;;;;;;;;;;5073515;28;20456;-74
2023/03/10 09:16:12;;;;;;;1.00;0.60;;;;;;;;;;5073325;28;20441;-74
2023/03/10 09:18:39;;;;;;;1.53;0.90;;;;;;;;;;5073762;28;20441;-74
2023/03/10 09:21:07;;;;;;;2.80;0.70;;;;;;;;;;5073075;28;20445;-74
2023/03/10 09:23:35;;;;;;;0.70;0.50;;;;;;;;;;5072977;28;20905;-75
2023/03/10 09:26:02;;;;;;;0.70;0.50;;;;;;;;;;5073116;28;20441;-75
2023/03/10 09:28:29;;;;;;;1.37;0.70;;;;;;;;;;5073680;28;20795;-75
2023/03/10 09:30:56;;;;;;;1.30;0.70;;;;;;;;;;5072929;28;20472;-74
2023/03/10 09:33:23;;;;;;;0.80;0.50;;;;;;;;;;5072997;28;20438;-75
2023/03/10 09:35:51;;;;;;;2.10;0.57;;;;;;;;;;5072455;28;20437;-75
2023/03/10 09:38:20;;;;;;;1.10;0.70;;;;;;;;;;5073319;28;20528;-73
2023/03/10 09:40:56;;;;;;;1.33;0.53;;;;;;;;;;5073509;28;20794;-75
2023/03/10 09:43:23;;;;;;;0.97;0.50;;;;;;;;;;5073107;28;20437;-76
2023/03/10 09:45:54;;;;;;;1.00;0.67;;;;;;;;;;5072280;28;20477;-77
2023/03/10 09:48:28;;;;;;;0.83;0.50;;;;;;;;;;5073201;28;20437;-77
2023/03/10 09:50:58;;;;;;;9.60;1.30;;;;;;;;;;5072539;28;20465;-78
2023/03/10 09:53:41;;;;;;;0.70;0.50;;;;;;;;;;5072818;28;20540;-78
2023/03/10 09:56:12;;;;;;;1.90;0.67;;;;;;;;;;5072369;28;20452;-78
2023/03/10 09:58:40;;;;;;;1.40;0.70;;;;;;;;;;5073081;28;20441;-78
2023/03/10 10:01:14;;;;;;;0.60;0.40;;;;;;;;;;5072491;28;20448;-78
2023/03/10 10:03:43;;;;;;;2.40;0.70;;;;;;;;;;5072182;28;20525;-78
2023/03/10 10:06:15;;;;;;;1.93;0.60;;;;;;;;;;5072475;28;20447;-78
2023/03/10 10:08:46;;;;;;;1.87;0.70;;;;;;;;;;5072936;28;20455;-78
2023/03/10 10:11:14;;;;;;;6.30;0.80;;;;;;;;;;5072772;28;20465;-77
2023/03/10 10:13:41;;;;;;;2.40;0.70;;;;;;;;;;5072494;28;20434;-78
2023/03/10 10:16:15;;;;;;;1.20;0.93;;;;;;;;;;5072225;28;20446;-78
2023/03/10 10:18:44;;;;;;;1.20;0.60;;;;;;;;;;5072791;28;20437;-77
2023/03/10 10:21:15;;;;;;;8.10;1.30;;;;;;;;;;5072020;28;20449;-78
2023/03/10 10:23:45;;;;;;;0.70;0.50;;;;;;;;;;5072225;28;20441;-76
2023/03/10 10:26:13;;;;;;;0.90;0.70;;;;;;;;;;5071880;28;20446;-77
2023/03/10 10:28:42;;;;;;;1.63;1.17;;;;;;;;;;5072534;28;20444;-80
2023/03/10 10:31:10;;;;;;;1.67;0.80;;;;;;;;;;5071818;28;20488;-78
2023/03/10 10:33:52;;;;;;;0.60;0.40;;;;;;;;;;5071955;28;20896;-80
2023/03/10 10:36:19;;;;;;;1.77;0.50;;;;;;;;;;5072312;28;20445;-78
2023/03/10 10:38:50;;;;;;;0.90;0.63;;;;;;;;;;5072367;28;20803;-79
2023/03/10 10:41:18;;;;;;;0.70;0.40;;;;;;;;;;5059115;28;20928;-78
2023/03/10 10:43:46;;;;;;;0.70;0.50;;;;;;;;;;5071816;28;20830;-78
2023/03/10 10:46:14;;;;;;;0.90;0.53;;;;;;;;;;5070839;28;20477;-78
2023/03/10 10:48:42;;;;;;;1.53;0.70;;;;;;;;;;5071561;28;20517;-78
2023/03/10 10:51:20;;;;;;;0.70;0.40;;;;;;;;;;5071563;28;20481;-79
2023/03/10 10:53:47;;;;;;;0.60;0.40;;;;;;;;;;5071652;28;20495;-77
2023/03/10 10:56:16;;;;;;;0.80;0.50;;;;;;;;;;5071642;28;20446;-78
2023/03/10 10:58:44;;;;;;;1.30;0.60;;;;;;;;;;5071570;28;20444;-78
2023/03/10 11:01:12;;;;;;;1.47;0.60;;;;;;;;;;5071610;28;20437;-78
2023/03/10 11:03:40;;;;;;;0.90;0.50;;;;;;;;;;5071259;28;20441;-78
2023/03/10 11:06:15;;;;;;;1.43;1.00;;;;;;;;;;5071345;28;20898;-78
2023/03/10 11:08:49;;;;;;;0.80;0.53;;;;;;;;;;5071685;28;20454;-78
2023/03/10 11:11:24;;;;;;;0.60;0.40;;;;;;;;;;5071783;28;20567;-78
2023/03/10 11:14:10;;;;;;;0.70;0.53;;;;;;;;;;5070814;28;20453;-79
2023/03/10 11:16:42;;;;;;;2.67;0.67;;;;;;;;;;5071761;28;20438;-77
2023/03/10 11:19:15;;;;;;;0.60;0.40;;;;;;;;;;5071098;28;20442;-78
2023/03/10 11:21:44;;;;;;;1.80;1.20;;;;;;;;;;5071189;28;20433;-78
2023/03/10 11:24:14;;;;;;;1.53;0.90;;;;;;;;;;5071026;28;20433;-74
2023/03/10 11:26:47;;;;;;;1.93;0.70;;;;;;;;;;5058764;28;20449;-80
2023/03/10 11:29:20;;;;;;;0.80;0.60;;;;;;;;;;5071749;28;20442;-78
2023/03/10 11:31:50;;;;;;;0.93;0.53;;;;;;;;;;5071247;28;20469;-79
2023/03/10 11:34:22;;;;;;;2.33;0.73;;;;;;;;;;5071343;28;20459;-78
2023/03/10 11:36:52;;;;;;;1.27;0.60;;;;;;;;;;5070887;28;20445;-79
2023/03/10 11:39:22;;;;;;;1.40;0.70;;;;;;;;;;5071175;28;20930;-79
2023/03/10 11:41:55;;;;;;;1.07;0.70;;;;;;;;;;5070644;28;20449;-78
2023/03/10 11:44:26;;;;;;;0.70;0.50;;;;;;;;;;5070756;28;20446;-77
2023/03/10 11:46:59;;;;;;;0.80;0.50;;;;;;;;;;5070930;28;20434;-78
2023/03/10 11:49:29;;;;;;;0.60;0.47;;;;;;;;;;5070971;28;20909;-78
2023/03/10 11:51:57;;;;;;;0.60;0.40;;;;;;;;;;5069927;28;20956;-79
2023/03/10 11:54:27;;;;;;;1.70;0.90;;;;;;;;;;5071280;28;20452;-77
2023/03/10 11:56:56;;;;;;;3.57;0.60;;;;;;;;;;5070665;28;20437;-77
2023/03/10 11:59:24;;;;;;;1.17;0.77;;;;;;;;;;5071225;28;20464;-77
2023/03/10 12:01:53;;;;;;;1.10;0.43;;;;;;;;;;5069837;28;20438;-77
2023/03/10 12:04:22;;;;;;;0.80;0.63;;;;;;;;;;5071088;28;20445;-77
2023/03/10 12:06:52;;;;;;;0.90;0.60;;;;;;;;;;5070517;28;20437;-77
2023/03/10 12:09:26;;;;;;;1.10;0.70;;;;;;;;;;5072692;28;20490;-77
2023/03/10 12:11:54;;;;;;;2.50;0.70;;;;;;;;;;5073786;28;20963;-77
2023/03/10 12:14:24;;;;;;;1.43;0.70;;;;;;;;;;5075256;28;20452;-77
2023/03/10 12:16:52;;;;;;;1.07;0.70;;;;;;;;;;5074413;28;20524;-77
2023/03/10 12:19:19;;;;;;;1.63;0.60;;;;;;;;;;5074613;28;20445;-76
2023/03/10 12:22:06;;;;;;;0.80;0.50;;;;;;;;;;5074547;28;20445;-77
2023/03/10 12:24:43;;;;;;;0.70;0.50;;;;;;;;;;5074447;28;20437;-76
2023/03/10 12:27:10;;;;;;;0.70;0.40;;;;;;;;;;5074441;28;20428;-76
2023/03/10 12:29:43;;;;;;;0.77;0.50;;;;;;;;;;5074438;28;20795;-79
2023/03/10 12:32:46;;;;;;;0.70;0.60;;;14.10;99.90;;;;;;5073655;28;20484;-77
2023/03/10 12:35:24;;;;;;;0.60;0.40;;;;;;;;;;5075925;28;20492;-77
2023/03/10 12:38:11;;;;;;;0.90;0.50;;;;;;;;;;5073640;28;20524;-77
2023/03/10 12:40:56;;;;;;;0.70;0.50;;;;;;;;;;5074429;28;20452;-76
2023/03/10 12:43:44;;;;;;;1.37;0.50;;;;;;;;;;5074192;28;20456;-77
2023/03/10 12:46:13;;;;;;;1.00;0.50;;;;;;;;;;5074118;28;20567;-77
2023/03/10 12:48:41;;;;;;;0.73;0.53;;;;;;;;;;5074258;28;20442;-77
2023/03/10 12:51:12;;;;;;;0.83;0.50;;;;;;;;;;5070005;28;20650;-73
2023/03/10 12:53:44;;;;;;;0.70;0.50;;;;;;;;;;5071852;28;20434;-76
2023/03/10 12:56:22;;;;;;;2.30;0.80;;;;;;;;;;5070871;28;20437;-75
2023/03/10 12:58:52;;;;;;;1.20;0.70;;;;;;;;;;5072238;28;20433;-74
2023/03/10 13:01:23;;;;;;;0.80;0.50;;;;;;;;;;5060652;28;20444;-75
2023/03/10 13:03:52;;;;;;;0.63;0.40;;;;;;;;;;5071527;28;20441;-75
2023/03/10 13:06:21;;;;;;;0.70;0.50;;;;;;;;;;5072580;28;20445;-75
2023/03/10 13:08:49;;;;;;;0.97;0.60;;;;;;;;;;5071446;28;20463;-71
2023/03/10 13:11:30;;;;;;;0.80;0.50;;;;;;;;;;5072238;28;20445;-73
2023/03/10 13:13:59;;;;;;;0.93;0.60;;;;;;;;;;5070574;28;20772;-76
2023/03/10 13:16:28;;;;;;;0.90;0.40;;;;;;;;;;5072494;28;20445;-76
2023/03/10 13:18:55;;;;;;;0.60;0.43;;;;;;;;;;5071825;28;20445;-75
2023/03/10 13:21:23;;;;;;;1.00;0.70;;;;;;;;;;5069379;28;20444;-75
2023/03/10 13:23:51;;;;;;;0.93;0.50;;;;;;;;;;5071006;28;20445;-74
2023/03/10 13:26:18;;;;;;;1.03;0.60;;;;;;;;;;5071414;28;20925;-75
2023/03/10 13:28:51;;;;;;;0.70;0.50;;;;;;;;;;5072639;28;20446;-75
2023/03/10 13:31:20;;;;;;;0.90;0.40;;;;;;;;;;5071057;28;20807;-72
2023/03/10 13:33:49;;;;;;;0.80;0.50;;;;;;;;;;5063434;28;20496;-75
2023/03/10 13:36:34;;;;;;;0.90;0.50;;;11.70;1.00;;;;;;5071406;28;20464;-76
2023/03/10 13:39:02;;;;;;;1.00;0.70;;;10.80;99.90;;;;;;5069999;28;20445;-75
2023/03/10 13:41:32;;;;;;;0.60;0.40;;;;;;;;;;5070430;28;20445;-77
2023/03/10 13:43:59;;;;;;;0.60;0.40;;;;;;;;;;5070655;28;20462;-76
2023/03/10 13:46:27;;;;;;;0.60;0.40;;;;;;;;;;5070083;28;20489;-73
2023/03/10 13:49:02;;;;;;;1.37;0.50;;;;;;;;;;5070736;28;20437;-75
2023/03/10 13:51:30;;;;;;;0.60;0.40;;;;;;;;;;5069891;28;20523;-74
2023/03/10 13:54:02;;;;;;;1.43;0.70;;;;;;;;;;5071010;28;20437;-75
2023/03/10 13:56:34;;;;;;;0.60;0.50;;;;;;;;;;5070292;28;20460;-76
2023/03/10 13:59:02;;;;;;;0.60;0.40;;;;;;;;;;5069437;28;20463;-78
2023/03/10 14:01:30;;;;;;;0.90;0.40;;;;;;;;;;5068669;28;20914;-75
2023/03/10 14:04:00;;;;;;;0.60;0.40;;;;;;;;;;5069536;28;20449;-77
2023/03/10 14:06:29;;;;;;;0.60;0.40;;;;;;;;;;5070750;28;20483;-76
2023/03/10 14:08:56;;;;;;;0.60;0.40;;;;;;;;;;5068135;28;20449;-75
2023/03/10 14:11:39;;;;;;;6.90;0.90;;;;;;;;;;5068795;28;20446;-74
2023/03/10 14:14:07;;;;;;;0.70;0.50;;;;;;;;;;5064216;28;20449;-73
2023/03/10 14:16:44;;;;;;;0.60;0.40;;;;;;;;;;5071323;28;20847;-75
2023/03/10 14:19:12;;;;;;;0.70;0.40;;;;;;;;;;5062227;28;20920;-74
2023/03/10 14:21:39;;;;;;;0.80;0.50;;;;;;;;;;5069685;28;20441;-75
2023/03/10 14:24:07;;;;;;;0.60;0.50;;;;;;;;;;5069789;28;20544;-78
2023/03/10 14:26:34;;;;;;;0.70;0.50;;;;;;;;;;5069415;28;20464;-75
2023/03/10 14:29:02;;;;;;;0.80;0.50;;;;;;;;;;5070097;28;20441;-74
2023/03/10 14:31:29;;;;;;;0.70;0.50;;;;;;;;;;5069047;28;20948;-73
2023/03/10 14:33:56;;;;;;;0.60;0.40;;;;;;;;;;5062680;28;20474;-72
2023/03/10 14:36:25;;;;;;;0.70;0.50;;;;;;;;;;5067799;28;20982;-72
2023/03/10 14:38:52;;;;;;;1.27;0.57;;;;;;;;;;5059448;28;21661;-72
2023/03/10 14:41:21;;;;;;;0.90;0.50;;;;;;;;;;5067036;28;20452;-71
2023/03/10 14:43:49;;;;;;;1.07;0.50;;;;;;;;;;5066035;28;20454;-70
2023/03/10 14:46:16;;;;;;;0.80;0.50;;;;;;;;;;5068448;28;20470;-73
2023/03/10 14:48:44;;;;;;;0.70;0.50;;;;;;;;;;5067748;28;20445;-70
2023/03/10 14:51:13;;;;;;;3.10;2.20;;;;;;;;;;5066459;28;20441;-72
2023/03/10 14:53:41;;;;;;;1.20;0.67;;;;;;;;;;5067857;28;21022;-72